Terminal Aerodrome Forecast
Issued by NWS Mt. Holly, NJ

Home | Current Version | Previous Version | Text Only | Print | Product List | Glossary On
Versions: 1 2 3 4 5 6 7 8 9 10 11 12 13 14 15 16 17 18 19 20 21 22 23 24 25 26 27 28 29 30 31 32
898
FTUS41 KPHI 222218 AAC
TAFACY
TAF AMD
KACY 222218Z 2222/2318 03010G18KT 2SM -RA BR OVC006
      TEMPO 2300/2302 4SM BR SCT006 OVC012
     FM230200 04012KT P6SM OVC008
     FM231100 04010KT 5SM BR OVC007
     FM231500 08008KT 3SM -RA BR OVC005=

USA.gov is the U.S. government's official web portal to all federal, state and local government web resources and services.